Time;durP1;ratioP1;P1;durP2;ratioP2;P2;SDS_P1;SDS_P2;PMS_P1;PMS_P2;Temp;Humidity;BMP_temperature;BMP_pressure;BME280_temperature;BME280_humidity;BME280_pressure;Samples;Min_cycle;Max_cycle;Signal;HPM_P1;HPM_P2
2022/12/14 00:01:34;;;;;;;11.77;4.63;;;-2.60;99.90;;;;;;5098142;28;20036;-64
2022/12/14 00:04:01;;;;;;;9.80;4.95;;;-2.60;99.90;;;;;;5090574;28;20082;-64
2022/12/14 00:06:30;;;;;;;10.32;4.07;;;-2.70;99.90;;;;;;5085784;28;20086;-64
2022/12/14 00:08:59;;;;;;;11.23;4.47;;;-2.70;99.90;;;;;;5095507;28;20078;-64
2022/12/14 00:11:27;;;;;;;11.20;4.20;;;-2.70;99.90;;;;;;5099963;28;20036;-64
2022/12/14 00:13:56;;;;;;;9.93;4.53;;;-2.60;99.90;;;;;;5091137;28;20063;-64
2022/12/14 00:16:26;;;;;;;9.65;4.60;;;-2.50;99.90;;;;;;5088957;28;20405;-64
2022/12/14 00:18:54;;;;;;;11.73;5.00;;;-2.50;99.90;;;;;;5099028;28;20040;-64
2022/12/14 00:21:22;;;;;;;9.98;4.10;;;-2.40;99.90;;;;;;5093893;28;20089;-64
2022/12/14 00:23:50;;;;;;;15.30;5.13;;;-2.50;99.90;;;;;;5093248;28;20104;-64
2022/12/14 00:26:26;;;;;;;14.65;5.60;;;-2.50;99.90;;;;;;5105204;28;20063;-64
2022/12/14 00:28:54;;;;;;;20.08;5.35;;;-2.40;99.90;;;;;;5076263;28;20063;-64
2022/12/14 00:31:22;;;;;;;10.10;4.47;;;-2.40;99.90;;;;;;5098451;28;20040;-63
2022/12/14 00:33:50;;;;;;;14.55;4.85;;;-2.40;99.90;;;;;;5080321;28;20036;-63
2022/12/14 00:36:17;;;;;;;12.23;5.43;;;-2.40;99.90;;;;;;5094535;28;20064;-63
2022/12/14 00:38:44;;;;;;;9.77;4.45;;;-2.40;99.90;;;;;;5097507;28;20097;-63
2022/12/14 00:41:11;;;;;;;9.00;4.88;;;-2.40;99.90;;;;;;5093261;28;20488;-64
2022/12/14 00:43:38;;;;;;;;;;;-2.40;99.90;;;;;;5098781;28;20047;-64
2022/12/14 00:46:05;;;;;;;13.43;5.22;;;-2.40;99.90;;;;;;5101859;28;19920;-64
2022/12/14 00:48:33;;;;;;;13.48;5.53;;;-2.40;99.90;;;;;;5097855;28;20035;-64
2022/12/14 00:51:00;;;;;;;;;;;-2.30;99.90;;;;;;5091832;28;20048;-64
2022/12/14 00:53:26;;;;;;;13.98;4.78;;;-2.30;99.90;;;;;;5097661;28;20018;-64
2022/12/14 00:55:53;;;;;;;7.55;4.60;;;-2.20;99.90;;;;;;5095636;28;20069;-64
2022/12/14 00:58:22;;;;;;;9.90;5.10;;;-2.20;99.90;;;;;;5098300;28;20063;-64
2022/12/14 01:01:02;;;;;;;11.23;5.28;;;-2.30;99.90;;;;;;5096457;28;20071;-64
2022/12/14 01:03:29;;;;;;;11.32;4.38;;;-2.40;99.90;;;;;;5100180;28;20469;-63
2022/12/14 01:05:57;;;;;;;11.57;5.28;;;-2.40;99.90;;;;;;5099031;28;20052;-64
2022/12/14 01:08:24;;;;;;;6.07;3.05;;;-2.50;99.90;;;;;;5099404;28;20039;-64
2022/12/14 01:10:51;;;;;;;15.45;6.43;;;-2.50;99.90;;;;;;5099228;28;20070;-64
2022/12/14 01:13:19;;;;;;;17.70;6.22;;;-2.50;99.90;;;;;;5075990;28;20097;-63
2022/12/14 01:15:46;;;;;;;17.35;7.25;;;-2.40;99.90;;;;;;5103355;28;20114;-64
2022/12/14 01:18:13;;;;;;;19.52;6.68;;;-2.40;99.90;;;;;;5093167;28;20035;-64
2022/12/14 01:20:40;;;;;;;14.77;7.20;;;-2.30;99.90;;;;;;5104492;28;20108;-64
2022/12/14 01:23:06;;;;;;;12.18;5.47;;;-2.40;99.90;;;;;;5093716;28;20048;-63
2022/12/14 01:25:33;;;;;;;18.08;7.15;;;-2.30;99.90;;;;;;5098473;28;20079;-63
2022/12/14 01:28:00;;;;;;;16.58;6.18;;;-2.30;99.90;;;;;;5090996;28;20072;-63
2022/12/14 01:30:27;;;;;;;9.70;5.10;;;-2.30;99.90;;;;;;5098099;28;20067;-63
2022/12/14 01:32:53;;;;;;;13.52;5.45;;;-2.20;99.90;;;;;;5096507;28;20052;-63
2022/12/14 01:35:20;;;;;;;16.40;5.50;;;-2.20;99.90;;;;;;5073140;28;20064;-63
2022/12/14 01:37:47;;;;;;;15.23;6.63;;;-2.20;99.90;;;;;;5092256;28;20544;-63
2022/12/14 01:40:15;;;;;;;19.80;6.70;;;-2.20;99.90;;;;;;5092675;28;20164;-63
2022/12/14 01:42:42;;;;;;;;;;;-2.20;99.90;;;;;;5092540;28;20040;-64
2022/12/14 01:45:18;;;;;;;13.70;6.55;;;-2.20;99.90;;;;;;5095907;28;20434;-64
2022/12/14 01:47:49;;;;;;;11.35;5.57;;;-2.10;99.90;;;;;;5091243;28;20047;-63
2022/12/14 01:50:23;;;;;;;15.38;6.88;;;-2.10;99.90;;;;;;5093619;28;20097;-63
2022/12/14 01:52:54;;;;;;;16.42;7.28;;;-2.10;99.90;;;;;;5091336;28;20086;-63
2022/12/14 01:55:28;;;;;;;20.75;8.52;;;-2.10;99.90;;;;;;5093218;28;20040;-64
2022/12/14 01:58:17;;;;;;;19.15;7.63;;;-2.10;99.90;;;;;;5092828;28;20111;-63
2022/12/14 02:00:44;;;;;;;16.70;7.28;;;-2.00;99.90;;;;;;5093263;28;20105;-64
2022/12/14 02:03:52;;;;;;;20.02;7.28;;;-2.00;99.90;;;;;;5084728;28;20453;-63
2022/12/14 02:06:29;;;;;;;16.48;7.28;;;-2.00;99.90;;;;;;5039586;28;20076;-63
2022/12/14 02:08:56;;;;;;;21.90;8.05;;;-2.00;99.90;;;;;;5050541;28;20037;-63
2022/12/14 02:11:47;;;;;;;17.25;6.50;;;-2.00;99.90;;;;;;5060891;28;20055;-63
2022/12/14 02:14:14;;;;;;;12.20;5.43;;;-2.00;99.90;;;;;;5092644;28;20550;-63
2022/12/14 02:16:41;;;;;;;9.77;4.78;;;-2.00;99.90;;;;;;5088687;28;20075;-63
2022/12/14 02:19:07;;;;;;;12.85;5.40;;;-2.00;99.90;;;;;;5049679;28;20040;-63
2022/12/14 02:22:19;;;;;;;12.02;4.72;;;-2.00;99.90;;;;;;5091001;28;20028;-63
2022/12/14 02:24:54;;;;;;;9.73;5.50;;;-2.00;99.90;;;;;;5093023;28;20067;-64
2022/12/14 02:27:58;;;;;;;10.85;5.75;;;-2.00;99.90;;;;;;5088846;28;20468;-64
2022/12/14 02:30:27;;;;;;;19.27;5.90;;;-1.90;99.90;;;;;;5092310;28;20071;-64
2022/12/14 02:33:21;;;;;;;18.42;7.43;;;-1.90;99.90;;;;;;5090303;28;20095;-63
2022/12/14 02:36:01;;;;;;;17.95;6.10;;;-1.90;99.90;;;;;;5081407;28;20119;-63
2022/12/14 02:38:33;;;;;;;11.38;5.72;;;-1.80;99.90;;;;;;5091352;28;20040;-64
2022/12/14 02:41:37;;;;;;;12.48;5.85;;;-1.90;99.90;;;;;;5092285;28;20051;-63
2022/12/14 02:44:47;;;;;;;12.50;6.07;;;-1.90;99.90;;;;;;5091505;28;20123;-63
2022/12/14 02:47:26;;;;;;;19.40;6.65;;;-1.80;99.90;;;;;;5092104;28;20101;-63
2022/12/14 02:50:21;;;;;;;15.10;6.45;;;-1.80;99.90;;;;;;5092290;28;20095;-63
2022/12/14 02:53:15;;;;;;;15.98;6.25;;;-1.90;99.90;;;;;;5089132;28;20083;-63
2022/12/14 02:55:51;;;;;;;18.85;6.50;;;-1.80;99.90;;;;;;5091879;28;20068;-63
2022/12/14 02:58:27;;;;;;;13.40;5.90;;;-1.80;99.90;;;;;;5089642;28;20044;-63
2022/12/14 03:00:55;;;;;;;16.67;6.47;;;-1.80;99.90;;;;;;5091857;28;20056;-63
2022/12/14 03:03:22;;;;;;;11.20;5.97;;;-1.80;99.90;;;;;;5090738;28;20040;-63
2022/12/14 03:05:57;;;;;;;16.00;5.88;;;-1.80;99.90;;;;;;5091177;28;20127;-64
2022/12/14 03:08:26;;;;;;;10.15;5.15;;;-1.70;99.90;;;;;;5094700;28;20081;-64
2022/12/14 03:10:58;;;;;;;11.27;5.75;;;-1.70;99.90;;;;;;5092102;28;20089;-63
2022/12/14 03:13:49;;;;;;;17.73;6.53;;;-1.70;99.90;;;;;;5091539;28;20089;-63
2022/12/14 03:16:22;;;;;;;13.20;5.32;;;-1.60;99.90;;;;;;5084492;28;20101;-63
2022/12/14 03:19:00;;;;;;;13.57;6.28;;;-1.60;99.90;;;;;;5091619;28;20560;-64
2022/12/14 03:26:06;;;;;;;13.30;4.97;;;-1.60;99.90;;;;;;5073690;28;20032;-62
2022/12/14 03:28:45;;;;;;;15.73;4.47;;;-1.60;99.90;;;;;;5091802;28;20035;-62
2022/12/14 03:31:24;;;;;;;12.85;5.78;;;-1.60;99.90;;;;;;5084752;28;20072;-62
2022/12/14 03:33:54;;;;;;;17.05;6.28;;;-1.60;99.90;;;;;;5075866;28;20040;-62
2022/12/14 03:36:31;;;;;;;12.45;6.10;;;-1.60;99.90;;;;;;5085227;28;20068;-63
2022/12/14 03:39:01;;;;;;;15.90;6.57;;;-1.60;99.90;;;;;;5091815;28;20043;-63
2022/12/14 03:41:45;;;;;;;12.25;6.57;;;-1.60;99.90;;;;;;5070483;28;20044;-62
2022/12/14 03:44:17;;;;;;;14.60;6.63;;;-1.60;99.90;;;;;;5067914;28;20474;-62
2022/12/14 03:47:01;;;;;;;14.13;5.40;;;-1.60;99.90;;;;;;5091057;28;20412;-62
2022/12/14 03:49:49;;;;;;;10.48;5.10;;;-1.60;99.90;;;;;;5091726;28;20074;-62
2022/12/14 03:52:25;;;;;;;11.40;5.63;;;-1.60;99.90;;;;;;5079183;28;20036;-62
2022/12/14 03:55:11;;;;;;;15.85;6.40;;;-1.60;99.90;;;;;;5071068;28;20032;-62
2022/12/14 03:57:43;;;;;;;16.30;6.10;;;-1.50;99.90;;;;;;5082180;28;20048;-62
2022/12/14 04:00:17;;;;;;;14.27;5.70;;;-1.50;99.90;;;;;;5074583;28;20059;-62
2022/12/14 04:03:01;;;;;;;15.15;5.65;;;-1.50;99.90;;;;;;5090289;28;20040;-62
2022/12/14 04:05:45;;;;;;;17.35;5.75;;;-1.50;99.90;;;;;;5086943;28;20063;-62
2022/12/14 04:08:33;;;;;;;12.90;5.78;;;-1.50;99.90;;;;;;5076241;28;20079;-62
2022/12/14 04:19:38;;;;;;;15.05;5.13;;;-1.40;99.90;;;;;;5074186;28;20037;-63
2022/12/14 04:22:13;;;;;;;11.52;4.40;;;-1.40;99.90;;;;;;5081343;28;20109;-62
2022/12/14 04:27:40;;;;;;;9.05;3.85;;;-1.50;99.90;;;;;;5070416;28;20451;-62
2022/12/14 04:30:09;;;;;;;8.93;3.63;;;-1.40;99.90;;;;;;5070273;28;20067;-62
2022/12/14 04:32:40;;;;;;;9.50;4.28;;;-1.50;99.90;;;;;;5067133;28;20082;-62
2022/12/14 04:35:18;;;;;;;12.50;4.32;;;-1.40;99.90;;;;;;5068406;28;20048;-63
2022/12/14 04:37:56;;;;;;;10.38;4.90;;;-1.40;99.90;;;;;;5070781;28;20408;-62
2022/12/14 04:40:31;;;;;;;8.85;3.90;;;-1.40;99.90;;;;;;5070678;28;20045;-62
2022/12/14 04:43:03;;;;;;;13.32;4.97;;;-1.30;99.90;;;;;;5067455;28;20048;-62
2022/12/14 04:45:40;;;;;;;13.27;4.90;;;-1.30;99.90;;;;;;5068401;28;20519;-62
2022/12/14 04:48:28;;;;;;;11.07;5.00;;;-1.30;99.90;;;;;;5073217;28;20048;-62
2022/12/14 04:51:04;;;;;;;12.20;5.47;;;-1.30;99.90;;;;;;5074065;28;20464;-62
2022/12/14 04:53:34;;;;;;;11.18;5.30;;;-1.30;99.90;;;;;;5079306;28;20451;-62
2022/12/14 04:56:29;;;;;;;14.55;5.70;;;-1.30;99.90;;;;;;5093356;28;20067;-62
2022/12/14 04:58:55;;;;;;;14.30;5.82;;;-1.30;99.90;;;;;;5075717;28;20063;-62
2022/12/14 05:02:10;;;;;;;10.15;5.03;;;-1.30;99.90;;;;;;5070348;28;20045;-62
2022/12/14 05:04:54;;;;;;;12.38;5.93;;;-1.20;99.90;;;;;;5056929;28;20056;-62
2022/12/14 05:07:43;;;;;;;9.65;5.55;;;-1.20;99.90;;;;;;5076707;28;20438;-62
2022/12/14 05:10:35;;;;;;;13.57;5.70;;;-1.20;99.90;;;;;;5079901;28;20040;-62
2022/12/14 05:13:20;;;;;;;14.35;6.15;;;-1.10;99.90;;;;;;5073450;28;20041;-62
2022/12/14 05:15:50;;;;;;;14.15;6.15;;;-1.10;99.90;;;;;;5074583;28;20463;-62
2022/12/14 05:18:17;;;;;;;15.18;6.40;;;-1.00;99.90;;;;;;5075957;28;20101;-62
2022/12/14 05:20:48;;;;;;;15.05;5.45;;;-1.10;99.90;;;;;;5072853;28;20067;-62
2022/12/14 05:23:15;;;;;;;16.08;5.18;;;-1.00;99.90;;;;;;5071840;28;20037;-62
2022/12/14 05:25:42;;;;;;;10.40;5.00;;;-1.10;99.90;;;;;;5070865;28;20041;-62
2022/12/14 05:28:10;;;;;;;11.60;5.07;;;-1.10;99.90;;;;;;5071613;28;20040;-62
2022/12/14 05:30:37;;;;;;;15.85;5.55;;;-1.00;99.90;;;;;;5071288;28;20037;-62
2022/12/14 05:33:04;;;;;;;11.88;5.47;;;-1.00;99.90;;;;;;5071603;28;21461;-62
2022/12/14 05:35:31;;;;;;;14.70;5.68;;;-1.00;99.90;;;;;;5065966;28;20095;-62
2022/12/14 05:37:58;;;;;;;11.32;6.22;;;-1.00;99.90;;;;;;5071424;28;20528;-62
2022/12/14 05:40:24;;;;;;;11.18;5.00;;;-1.00;99.90;;;;;;5071727;28;20048;-62
2022/12/14 05:43:01;;;;;;;8.48;3.40;;;-1.00;99.90;;;;;;5070824;28;20075;-62
2022/12/14 05:45:28;;;;;;;11.07;4.00;;;-1.10;99.90;;;;;;5071665;28;20041;-61
2022/12/14 05:47:55;;;;;;;6.47;3.97;;;-1.10;99.90;;;;;;5072818;28;20087;-62
2022/12/14 05:50:21;;;;;;;10.00;3.78;;;-1.10;99.90;;;;;;5069286;28;20040;-62
2022/12/14 05:52:50;;;;;;;11.85;5.38;;;-1.10;99.90;;;;;;5072231;28;20044;-62
2022/12/14 05:55:17;;;;;;;11.85;5.43;;;-1.10;99.90;;;;;;5069040;28;20068;-62
2022/12/14 05:57:44;;;;;;;10.82;5.45;;;-1.10;99.90;;;;;;5063323;28;20572;-62
2022/12/14 06:00:11;;;;;;;11.52;5.03;;;-1.10;99.90;;;;;;5054702;28;20086;-62
2022/12/14 06:02:38;;;;;;;11.07;5.30;;;-1.10;99.90;;;;;;5067875;28;20048;-61
2022/12/14 06:05:05;;;;;;;12.18;5.60;;;-1.20;99.90;;;;;;5071135;28;20047;-61
2022/12/14 06:07:31;;;;;;;14.82;5.68;;;-1.10;99.90;;;;;;5072356;28;20046;-61
2022/12/14 06:09:58;;;;;;;11.70;4.13;;;-1.10;99.90;;;;;;5071647;28;20071;-62
2022/12/14 06:12:25;;;;;;;9.63;4.05;;;-1.10;99.90;;;;;;5066377;28;20040;-61
2022/12/14 06:14:52;;;;;;;8.98;5.43;;;-1.10;99.90;;;;;;5064576;28;20147;-62
2022/12/14 06:17:18;;;;;;;13.32;5.60;;;-1.00;99.90;;;;;;5053080;28;20036;-61
2022/12/14 06:19:45;;;;;;;15.27;5.93;;;-1.00;99.90;;;;;;5071551;28;20036;-62
2022/12/14 06:22:17;;;;;;;18.30;5.82;;;-1.00;99.90;;;;;;5071777;28;20493;-62
2022/12/14 06:24:43;;;;;;;16.40;5.70;;;-1.00;99.90;;;;;;5065332;28;20091;-61
2022/12/14 06:27:10;;;;;;;13.80;5.53;;;-1.10;99.90;;;;;;5064301;28;20032;-61
2022/12/14 06:29:37;;;;;;;15.43;7.22;;;-1.10;99.90;;;;;;5071637;28;20079;-62
2022/12/14 06:32:04;;;;;;;14.32;4.80;;;-1.20;99.90;;;;;;5070226;28;20069;-62
2022/12/14 06:34:30;;;;;;;12.48;6.35;;;-1.10;99.90;;;;;;5071977;28;20550;-62
2022/12/14 06:37:05;;;;;;;17.17;5.78;;;-1.10;99.90;;;;;;5070960;28;20032;-62
2022/12/14 06:39:31;;;;;;;14.35;5.78;;;-1.10;99.90;;;;;;5072080;28;20037;-61
2022/12/14 06:41:58;;;;;;;10.02;5.70;;;-1.00;99.90;;;;;;5067917;28;20036;-61
2022/12/14 06:44:25;;;;;;;12.38;5.97;;;-1.00;99.90;;;;;;5071843;28;20036;-61
2022/12/14 06:46:52;;;;;;;13.55;5.97;;;-1.00;99.90;;;;;;5088259;28;20472;-61
2022/12/14 06:49:19;;;;;;;12.25;5.93;;;-1.00;99.90;;;;;;5066713;28;20437;-62
2022/12/14 06:51:45;;;;;;;18.88;6.25;;;-1.00;99.90;;;;;;5070849;28;20508;-61
2022/12/14 06:54:14;;;;;;;11.63;5.70;;;-1.00;99.90;;;;;;5067973;28;20041;-61
2022/12/14 06:56:42;;;;;;;15.32;6.57;;;-0.90;99.90;;;;;;5068258;28;20066;-61
2022/12/14 06:59:10;;;;;;;21.30;9.18;;;-0.90;99.90;;;;;;5070390;28;20432;-61
2022/12/14 07:01:38;;;;;;;23.65;9.30;;;-0.90;99.90;;;;;;5070175;28;20102;-61
2022/12/14 07:04:06;;;;;;;19.35;8.65;;;-0.80;99.90;;;;;;5070292;28;20045;-62
2022/12/14 07:06:38;;;;;;;20.65;8.02;;;-0.80;99.90;;;;;;5070987;28;20066;-62
2022/12/14 07:09:09;;;;;;;16.13;7.20;;;-0.80;99.90;;;;;;5070652;28;20037;-62
2022/12/14 07:11:36;;;;;;;18.50;8.13;;;-0.80;99.90;;;;;;5071319;28;20068;-61
2022/12/14 07:14:05;;;;;;;16.98;8.57;;;-0.80;99.90;;;;;;5067608;28;20041;-61
2022/12/14 07:16:33;;;;;;;15.98;7.38;;;-0.80;99.90;;;;;;5083129;28;20378;-62
2022/12/14 07:19:00;;;;;;;17.05;7.57;;;-0.80;99.90;;;;;;5091891;28;20066;-62
2022/12/14 07:21:26;;;;;;;22.88;10.23;;;-0.70;99.90;;;;;;5078260;28;20102;-62
2022/12/14 07:23:53;;;;;;;23.17;10.20;;;-0.70;99.90;;;;;;5071414;28;20128;-61
2022/12/14 07:26:23;;;;;;;13.23;7.05;;;-0.70;99.90;;;;;;5069626;28;20040;-61
2022/12/14 07:28:51;;;;;;;18.08;8.57;;;-0.60;99.90;;;;;;5071267;28;20094;-61
2022/12/14 07:31:20;;;;;;;28.13;10.50;;;-0.60;99.90;;;;;;5070206;28;20086;-62
2022/12/14 07:33:48;;;;;;;40.63;15.63;;;-0.60;99.90;;;;;;5069144;28;20448;-61
2022/12/14 07:36:16;;;;;;;;;;;-0.60;99.90;;;;;;5083616;28;20028;-61
2022/12/14 07:38:44;;;;;;;;;;;-0.50;99.90;;;;;;5091976;28;19924;-62
2022/12/14 07:41:16;;;;;;;20.83;9.18;;;-0.50;99.90;;;;;;5085902;28;19974;-62
2022/12/14 07:43:49;;;;;;;;;;;-0.50;99.90;;;;;;5071853;28;20052;-61
2022/12/14 07:46:21;;;;;;;22.65;8.38;;;-0.50;99.90;;;;;;5091145;28;20296;-62
2022/12/14 07:48:50;;;;;;;19.83;9.23;;;-0.40;99.90;;;;;;5091569;28;20127;-61
2022/12/14 07:51:19;;;;;;;17.30;8.38;;;-0.40;99.90;;;;;;5088225;28;20043;-62
2022/12/14 07:53:46;;;;;;;20.27;8.52;;;-0.40;99.90;;;;;;5082712;28;20047;-61
2022/12/14 07:56:19;;;;;;;25.05;9.27;;;-0.30;99.90;;;;;;5091286;28;20036;-62
2022/12/14 07:58:46;;;;;;;21.15;8.55;;;-0.30;99.90;;;;;;5072456;28;20098;-62
2022/12/14 08:01:18;;;;;;;15.45;7.47;;;-0.30;99.90;;;;;;5083163;28;20093;-62
2022/12/14 08:04:07;;;;;;;16.20;6.63;;;-0.30;99.90;;;;;;5090861;28;20040;-61
2022/12/14 08:06:34;;;;;;;;;;;-0.30;99.90;;;;;;5077182;28;20056;-61
2022/12/14 08:09:01;;;;;;;17.08;7.50;;;-0.40;99.90;;;;;;5070909;28;20393;-62
2022/12/14 08:11:28;;;;;;;15.23;7.20;;;-0.40;99.90;;;;;;5070392;28;20482;-61
2022/12/14 08:13:57;;;;;;;17.42;7.15;;;-0.30;99.90;;;;;;5071094;28;20048;-62
2022/12/14 08:16:24;;;;;;;17.70;7.63;;;-0.30;99.90;;;;;;5075305;28;20032;-62
2022/12/14 08:18:53;;;;;;;22.90;6.75;;;-0.20;99.90;;;;;;5090960;28;20043;-62
2022/12/14 08:21:21;;;;;;;15.63;6.78;;;-0.20;99.90;;;;;;5095094;28;20040;-62
2022/12/14 08:23:49;;;;;;;16.50;6.78;;;-0.20;99.90;;;;;;5076908;28;20078;-62
2022/12/14 08:26:16;;;;;;;18.88;9.02;;;-0.20;99.90;;;;;;5062653;28;20079;-61
2022/12/14 08:28:44;;;;;;;19.67;7.93;;;-0.20;99.90;;;;;;5074326;28;20049;-62
2022/12/14 08:31:21;;;;;;;21.38;8.43;;;-0.20;99.90;;;;;;5074371;28;20070;-62
2022/12/14 08:33:48;;;;;;;16.35;7.60;;;-0.20;99.90;;;;;;5070708;28;20055;-61
2022/12/14 08:36:18;;;;;;;20.20;7.68;;;-0.20;99.90;;;;;;5069843;28;20068;-61
2022/12/14 08:38:45;;;;;;;15.73;7.82;;;-0.10;99.90;;;;;;5073941;28;20075;-61
2022/12/14 08:41:14;;;;;;;21.60;7.85;;;0.00;99.90;;;;;;5073606;28;20086;-61
2022/12/14 08:43:53;;;;;;;14.55;7.35;;;0.10;99.90;;;;;;5071372;28;20470;-62
2022/12/14 08:46:20;;;;;;;20.85;7.50;;;0.20;99.90;;;;;;5074080;28;20109;-61
2022/12/14 08:48:49;;;;;;;18.52;7.28;;;0.30;99.90;;;;;;5074017;28;20048;-61
2022/12/14 08:51:17;;;;;;;18.45;6.72;;;0.20;99.90;;;;;;5074343;28;20059;-61
2022/12/14 08:53:46;;;;;;;15.55;7.78;;;0.10;99.90;;;;;;5066092;28;20111;-62
2022/12/14 08:56:16;;;;;;;13.73;7.20;;;0.10;99.90;;;;;;5082477;28;20037;-62
2022/12/14 08:58:43;;;;;;;14.98;6.72;;;0.30;99.90;;;;;;5056244;28;20068;-62
2022/12/14 09:01:12;;;;;;;16.85;7.45;;;0.30;99.90;;;;;;5067859;28;20082;-61
2022/12/14 09:03:40;;;;;;;12.45;6.88;;;0.30;99.90;;;;;;5073499;28;20036;-62
2022/12/14 09:06:10;;;;;;;13.70;6.30;;;0.40;99.90;;;;;;5071651;28;20040;-62
2022/12/14 09:08:37;;;;;;;13.43;6.80;;;0.40;99.90;;;;;;5069515;28;20447;-61
2022/12/14 09:11:05;;;;;;;16.60;7.78;;;0.30;99.90;;;;;;5072982;28;20114;-61
2022/12/14 09:13:32;;;;;;;23.02;8.98;;;0.30;99.90;;;;;;5073016;28;20130;-61
2022/12/14 09:16:07;;;;;;;16.42;7.35;;;0.30;99.90;;;;;;5069176;28;20094;-62
2022/12/14 09:18:34;;;;;;;13.75;7.13;;;0.30;99.90;;;;;;5073738;28;20043;-62
2022/12/14 09:23:57;;;;;;;12.52;5.63;;;0.40;99.90;;;;;;5041323;28;20056;-60
2022/12/14 09:26:51;;;;;;;18.02;6.90;;;0.50;99.90;;;;;;5044305;28;20544;-61
2022/12/14 09:29:18;;;;;;;19.27;7.07;;;0.60;99.90;;;;;;5032053;28;20046;-60
2022/12/14 09:31:45;;;;;;;18.02;8.10;;;0.60;99.90;;;;;;5034565;28;20048;-61
2022/12/14 09:34:12;;;;;;;19.13;8.68;;;0.70;99.90;;;;;;5072174;28;20037;-60
2022/12/14 09:36:39;;;;;;;24.20;10.70;;;0.80;99.90;;;;;;5071964;28;20044;-61
2022/12/14 09:39:06;;;;;;;12.80;5.32;;;0.90;99.90;;;;;;5072305;28;20048;-61
2022/12/14 09:41:33;;;;;;;12.93;6.40;;;0.90;99.90;;;;;;5048255;28;20413;-61
2022/12/14 09:44:23;;;;;;;11.13;5.90;;;1.00;99.90;;;;;;5050606;28;20052;-61
2022/12/14 09:47:03;;;;;;;15.32;6.90;;;1.00;99.90;;;;;;5052312;28;20045;-61
2022/12/14 09:49:35;;;;;;;15.77;6.50;;;1.10;99.90;;;;;;5057457;28;20102;-61
2022/12/14 09:52:05;;;;;;;12.90;6.07;;;1.10;99.90;;;;;;5057732;28;20045;-61
2022/12/14 09:54:35;;;;;;;16.17;5.88;;;1.30;99.90;;;;;;5062240;28;20469;-61
2022/12/14 09:57:23;;;;;;;13.15;5.55;;;1.40;99.90;;;;;;5071415;28;20045;-61
2022/12/14 09:59:53;;;;;;;11.57;4.90;;;1.40;99.90;;;;;;5071871;28;20075;-61
2022/12/14 10:02:43;;;;;;;15.88;6.00;;;1.50;99.90;;;;;;5057433;28;20045;-60
2022/12/14 10:05:31;;;;;;;12.27;6.47;;;1.60;99.90;;;;;;5042364;28;20396;-60
2022/12/14 10:08:17;;;;;;;13.17;7.00;;;1.80;99.90;;;;;;5071909;28;20074;-61
2022/12/14 10:11:09;;;;;;;14.07;6.65;;;1.80;99.90;;;;;;5067525;28;20419;-61
2022/12/14 10:13:57;;;;;;;15.77;7.85;;;1.80;99.90;;;;;;5070711;28;20101;-60
2022/12/14 10:16:50;;;;;;;12.77;7.00;;;1.90;99.90;;;;;;5071595;28;20056;-61
2022/12/14 10:19:30;;;;;;;13.68;5.55;;;1.90;99.90;;;;;;5050208;28;20048;-60
2022/12/14 10:22:03;;;;;;;8.65;4.75;;;1.90;99.90;;;;;;5071146;28;20098;-61
2022/12/14 10:24:35;;;;;;;13.75;5.32;;;2.00;99.90;;;;;;5072542;28;20044;-61
2022/12/14 10:27:06;;;;;;;10.50;5.38;;;2.10;99.90;;;;;;5056464;28;20052;-60
2022/12/14 10:29:40;;;;;;;10.40;5.10;;;2.30;99.90;;;;;;5072452;28;20037;-61
2022/12/14 10:32:14;;;;;;;14.55;5.32;;;2.60;99.90;;;;;;5071516;28;20126;-60
2022/12/14 10:34:42;;;;;;;17.58;5.07;;;2.90;99.90;;;;;;5063131;28;20079;-61
2022/12/14 10:37:34;;;;;;;11.70;5.43;;;3.20;99.90;;;;;;5068864;28;20535;-61
2022/12/14 10:40:25;;;;;;;10.65;4.93;;;3.30;99.90;;;;;;5051405;28;20048;-61
2022/12/14 10:43:21;;;;;;;8.30;4.88;;;3.50;99.90;;;;;;5049932;28;20273;-60
2022/12/14 10:46:14;;;;;;;10.30;5.28;;;3.50;99.90;;;;;;5068484;28;20045;-61
2022/12/14 10:48:47;;;;;;;10.25;5.38;;;3.50;99.90;;;;;;5051502;28;20049;-61
2022/12/14 10:51:46;;;;;;;14.52;5.82;;;3.40;99.90;;;;;;5034266;28;20045;-61
2022/12/14 10:54:37;;;;;;;10.00;5.20;;;3.20;99.90;;;;;;5058590;28;20071;-60
2022/12/14 10:57:04;;;;;;;11.20;5.82;;;3.10;99.90;;;;;;5071329;28;20040;-60
2022/12/14 10:59:36;;;;;;;11.00;5.53;;;3.10;99.90;;;;;;5071789;28;20040;-61
2022/12/14 11:02:22;;;;;;;12.38;6.40;;;3.30;99.90;;;;;;5070557;28;20040;-61
2022/12/14 11:05:04;;;;;;;9.30;4.78;;;3.50;99.90;;;;;;5040706;28;20453;-61
2022/12/14 11:07:31;;;;;;;13.10;5.43;;;3.70;99.90;;;;;;5051744;28;20405;-61
2022/12/14 11:10:13;;;;;;;9.55;4.20;;;3.70;99.90;;;;;;5060645;28;20504;-60
2022/12/14 11:12:40;;;;;;;12.95;4.60;;;3.70;99.90;;;;;;5071128;28;20045;-61
2022/12/14 11:15:23;;;;;;;9.65;4.05;;;3.80;99.90;;;;;;5071431;28;20103;-61
2022/12/14 11:18:03;;;;;;;10.90;5.10;;;3.70;99.90;;;;;;5060729;28;20098;-61
2022/12/14 11:20:32;;;;;;;7.53;4.05;;;3.60;99.90;;;;;;5071375;28;20041;-61
2022/12/14 11:23:15;;;;;;;14.15;6.13;;;3.50;99.90;;;;;;5068800;28;20076;-61
2022/12/14 11:25:45;;;;;;;13.13;5.28;;;3.50;99.90;;;;;;5061889;28;20090;-61
2022/12/14 11:28:34;;;;;;;9.20;4.97;;;3.50;99.90;;;;;;5051401;28;20037;-61
2022/12/14 11:31:06;;;;;;;8.93;4.40;;;3.60;99.90;;;;;;5050762;28;20563;-61
2022/12/14 11:33:45;;;;;;;9.98;4.97;;;3.60;99.90;;;;;;5050044;28;20120;-61
2022/12/14 11:36:35;;;;;;;13.40;5.38;;;3.50;99.90;;;;;;5038909;28;20494;-61
2022/12/14 11:39:05;;;;;;;12.20;5.70;;;3.50;99.90;;;;;;5031509;28;20049;-61
2022/12/14 11:41:37;;;;;;;13.48;5.15;;;3.40;99.90;;;;;;5030818;28;20033;-61
2022/12/14 11:44:13;;;;;;;18.58;5.57;;;3.30;99.90;;;;;;5066672;28;20076;-61
2022/12/14 11:46:55;;;;;;;17.17;6.97;;;3.10;99.90;;;;;;5050795;28;20103;-62
2022/12/14 11:49:26;;;;;;;13.00;6.47;;;3.00;99.90;;;;;;5051428;28;20052;-61
2022/12/14 11:52:34;;;;;;;11.75;6.32;;;3.10;99.90;;;;;;5045820;28;20098;-61
2022/12/14 11:55:00;;;;;;;15.60;8.70;;;3.40;99.90;;;;;;5042223;28;20111;-61
2022/12/14 11:57:31;;;;;;;15.50;7.53;;;3.60;99.90;;;;;;5056530;28;20037;-62
2022/12/14 12:00:06;;;;;;;27.35;9.98;;;3.60;99.90;;;;;;5074252;28;20067;-61
2022/12/14 12:02:39;;;;;;;18.35;6.50;;;3.70;99.90;;;;;;5057047;28;20420;-61
2022/12/14 12:05:13;;;;;;;18.83;6.25;;;3.80;99.90;;;;;;5057866;28;20521;-61
2022/12/14 12:07:44;;;;;;;12.48;6.25;;;3.90;99.90;;;;;;5051980;28;20076;-61
2022/12/14 12:10:11;;;;;;;16.63;6.55;;;3.70;99.90;;;;;;5049480;28;20053;-61
2022/12/14 12:12:48;;;;;;;13.00;6.07;;;3.80;99.90;;;;;;5057382;28;20071;-61
2022/12/14 12:15:41;;;;;;;13.60;7.70;;;3.70;99.90;;;;;;5058070;28;20412;-61
2022/12/14 12:18:24;;;;;;;22.25;9.50;;;3.70;99.90;;;;;;5056173;28;20424;-61
2022/12/14 12:21:11;;;;;;;19.40;8.77;;;3.70;99.90;;;;;;5074164;28;20041;-60
2022/12/14 12:23:45;;;;;;;25.30;9.35;;;3.50;99.90;;;;;;5056956;28;20033;-61
2022/12/14 12:26:23;;;;;;;29.70;8.68;;;3.40;99.90;;;;;;5045700;28;20107;-61
2022/12/14 12:28:56;;;;;;;29.20;10.65;;;3.20;99.90;;;;;;5061817;28;20052;-61
2022/12/14 12:31:32;;;;;;;22.17;9.32;;;3.20;99.90;;;;;;5063527;28;20044;-61
2022/12/14 12:34:02;;;;;;;21.60;8.02;;;3.30;99.90;;;;;;5054776;28;20049;-61
2022/12/14 12:36:31;;;;;;;18.00;7.90;;;3.40;99.90;;;;;;5048881;28;20482;-61
2022/12/14 12:39:14;;;;;;;9.63;5.72;;;3.40;99.90;;;;;;5047203;28;20045;-61
2022/12/14 12:41:59;;;;;;;8.77;4.93;;;3.40;99.90;;;;;;5054866;28;20060;-61
2022/12/14 12:44:47;;;;;;;9.25;4.85;;;3.40;99.90;;;;;;5065986;28;20033;-61
2022/12/14 12:47:41;;;;;;;11.48;5.78;;;3.30;99.90;;;;;;5076634;28;20048;-61
2022/12/14 12:50:24;;;;;;;13.07;5.78;;;3.70;99.90;;;;;;5072347;28;20041;-61
2022/12/14 12:52:59;;;;;;;10.82;5.32;;;3.20;99.90;;;;;;5073415;28;20098;-61
2022/12/14 12:55:37;;;;;;;11.98;4.88;;;3.20;99.90;;;;;;5056711;28;20045;-61
2022/12/14 12:58:08;;;;;;;24.60;8.52;;;3.10;99.90;;;;;;5057827;28;20069;-60
2022/12/14 13:00:39;;;;;;;15.18;7.63;;;3.10;99.90;;;;;;5077418;28;20041;-61
2022/12/14 13:03:22;;;;;;;29.35;9.50;;;3.10;99.90;;;;;;5075656;28;20064;-60
2022/12/14 13:05:51;;;;;;;14.32;6.63;;;2.90;99.90;;;;;;5073106;28;20110;-60
2022/12/14 13:08:38;;;;;;;13.15;6.22;;;2.90;99.90;;;;;;5050652;28;20440;-60
2022/12/14 13:11:16;;;;;;;12.27;6.30;;;2.90;99.90;;;;;;5053169;28;20111;-61
2022/12/14 13:13:56;;;;;;;10.48;5.75;;;3.00;99.90;;;;;;5053922;28;20639;-61
2022/12/14 13:16:35;;;;;;;11.85;6.07;;;3.00;99.90;;;;;;5049175;28;20044;-61
2022/12/14 13:19:23;;;;;;;18.17;6.13;;;3.10;99.90;;;;;;5073523;28;20136;-61
2022/12/14 13:22:13;;;;;;;14.98;6.63;;;3.30;99.90;;;;;;5073598;28;20416;-61
2022/12/14 13:24:44;;;;;;;19.75;8.68;;;3.50;99.90;;;;;;5055259;28;20069;-61
2022/12/14 13:27:35;;;;;;;14.85;6.35;;;3.60;99.90;;;;;;5060311;28;20068;-61
2022/12/14 13:30:24;;;;;;;14.13;6.38;;;3.70;99.90;;;;;;5071308;28;20049;-61
2022/12/14 13:33:36;;;;;;;14.82;7.13;;;3.70;99.90;;;;;;5067123;28;20109;-61
2022/12/14 13:36:25;;;;;;;16.65;6.00;;;3.80;99.90;;;;;;5069873;28;20080;-61
2022/12/14 13:39:10;;;;;;;;;;;3.80;99.90;;;;;;5073881;28;20036;-61